createdAt,value
2023-02-07T00:00:32.025Z,127.60
2023-02-07T00:05:56.232Z,171.80
2023-02-07T00:11:05.647Z,157.10
2023-02-07T00:16:09.267Z,126.50
2023-02-07T00:21:20.340Z,114.60
2023-02-07T00:26:25.814Z,117.80
2023-02-07T00:31:31.943Z,86.20
2023-02-07T00:36:36.813Z,75.30
2023-02-07T00:41:40.639Z,123.30
2023-02-07T00:46:46.340Z,98.00
2023-02-07T00:51:49.983Z,84.40
2023-02-07T00:56:54.556Z,105.90
2023-02-07T01:01:58.461Z,124.20
2023-02-07T01:07:03.569Z,110.80
2023-02-07T01:12:07.043Z,93.00
2023-02-07T01:17:10.825Z,84.10
2023-02-07T01:22:15.313Z,95.10
2023-02-07T01:27:19.457Z,83.30
2023-02-07T01:32:24.239Z,106.50
2023-02-07T01:37:28.817Z,94.40
2023-02-07T01:42:33.174Z,115.80
2023-02-07T01:47:38.664Z,106.60
2023-02-07T01:52:42.918Z,102.20
2023-02-07T01:57:47.407Z,99.70
2023-02-07T02:02:52.642Z,106.40
2023-02-07T02:07:57.792Z,111.00
2023-02-07T02:13:12.060Z,94.30
2023-02-07T02:18:37.611Z,96.80
2023-02-07T02:24:19.549Z,102.60
2023-02-07T02:29:46.836Z,101.30
2023-02-07T02:35:00.465Z,94.60
2023-02-07T02:40:13.522Z,96.70
2023-02-07T02:45:44.788Z,87.20
2023-02-07T02:50:50.775Z,90.60
2023-02-07T02:56:16.684Z,82.80
2023-02-07T03:02:06.739Z,73.60
2023-02-07T03:07:30.189Z,88.50
2023-02-07T03:12:39.518Z,73.40
2023-02-07T03:17:58.031Z,68.20
2023-02-07T03:23:06.184Z,64.40
2023-02-07T03:28:11.718Z,58.30
2023-02-07T03:33:17.538Z,67.90
2023-02-07T03:38:22.098Z,88.90
2023-02-07T03:43:29.496Z,82.40
2023-02-07T03:48:32.828Z,83.40
2023-02-07T03:53:36.304Z,83.20
2023-02-07T03:58:41.013Z,78.30
2023-02-07T04:03:45.714Z,74.00
2023-02-07T04:08:51.211Z,77.30
2023-02-07T04:13:55.736Z,79.30
2023-02-07T04:19:00.635Z,73.30
2023-02-07T04:24:04.576Z,68.60
2023-02-07T04:29:09.812Z,73.00
2023-02-07T04:34:13.586Z,77.80
2023-02-07T04:39:18.747Z,86.90
2023-02-07T04:44:23.851Z,69.00
2023-02-07T04:49:27.809Z,76.90
2023-02-07T04:54:31.808Z,71.30
2023-02-07T04:59:36.295Z,83.10
2023-02-07T05:04:40.167Z,76.80
2023-02-07T05:09:44.094Z,75.20
2023-02-07T05:14:49.260Z,74.20
2023-02-07T05:19:53.589Z,79.50
2023-02-07T05:24:57.791Z,76.90
2023-02-07T05:30:01.292Z,83.90
2023-02-07T05:35:05.968Z,77.20
2023-02-07T05:40:10.135Z,73.60
2023-02-07T05:45:13.961Z,69.00
2023-02-07T05:50:17.764Z,76.30
2023-02-07T05:55:21.653Z,69.60
2023-02-07T06:00:25.511Z,79.40
2023-02-07T06:05:32.153Z,76.70
2023-02-07T06:10:35.988Z,71.90
2023-02-07T06:15:40.375Z,82.70
2023-02-07T06:20:45.487Z,94.30
2023-02-07T06:25:50.879Z,89.70
2023-02-07T06:30:55.424Z,76.50
2023-02-07T06:35:59.178Z,86.70
2023-02-07T06:41:02.403Z,84.20
2023-02-07T06:46:06.721Z,84.80
2023-02-07T06:51:10.150Z,73.30
2023-02-07T06:56:13.880Z,69.20
2023-02-07T07:01:20.799Z,72.40
2023-02-07T07:06:24.993Z,78.50
2023-02-07T07:11:29.867Z,71.20
2023-02-07T07:16:33.426Z,74.90
2023-02-07T07:21:38.112Z,70.30
2023-02-07T07:26:49.231Z,81.00
2023-02-07T07:31:54.077Z,72.20
2023-02-07T07:36:59.295Z,85.20
2023-02-07T07:42:04.173Z,82.00
2023-02-07T07:47:09.226Z,93.50
2023-02-07T07:52:13.397Z,95.60
2023-02-07T07:57:18.538Z,103.80
2023-02-07T08:02:24.656Z,93.40
2023-02-07T08:07:28.792Z,85.70
2023-02-07T08:12:33.915Z,77.40
2023-02-07T08:17:38.887Z,84.70
2023-02-07T08:22:43.077Z,53.20
2023-02-07T08:27:48.541Z,57.40
2023-02-07T08:32:55.876Z,55.40
2023-02-07T08:37:59.946Z,50.20
2023-02-07T08:43:08.505Z,56.70
2023-02-07T08:48:13.732Z,49.40
2023-02-07T08:53:20.653Z,54.70
2023-02-07T08:58:25.716Z,52.10
2023-02-07T09:03:30.347Z,55.20
2023-02-07T09:08:35.385Z,91.00
2023-02-07T09:13:44.101Z,78.30
2023-02-07T09:18:50.389Z,91.40
2023-02-07T09:23:56.305Z,82.40
2023-02-07T09:29:01.928Z,91.00
2023-02-07T09:34:06.004Z,67.60
2023-02-07T09:39:11.002Z,62.30
2023-02-07T09:44:18.866Z,53.20
2023-02-07T09:54:42.961Z,58.60
2023-02-07T09:59:56.060Z,49.80
2023-02-07T10:05:05.685Z,59.90
2023-02-07T10:10:19.027Z,51.70
2023-02-07T10:15:30.193Z,62.30
2023-02-07T10:20:59.544Z,55.40
2023-02-07T10:26:37.164Z,59.20
2023-02-07T10:31:44.825Z,62.10
2023-02-07T10:36:51.930Z,40.30
2023-02-07T10:41:57.624Z,37.10
2023-02-07T10:47:04.863Z,31.40
2023-02-07T10:52:39.948Z,16.10
2023-02-07T10:58:02.682Z,13.00
2023-02-07T11:03:15.135Z,23.00
2023-02-07T11:08:25.544Z,26.80
2023-02-07T11:13:33.724Z,28.30
2023-02-07T11:18:45.884Z,41.50
2023-02-07T11:23:51.267Z,32.10
2023-02-07T11:29:07.754Z,24.30
2023-02-07T11:34:44.808Z,24.60
2023-02-07T11:39:51.882Z,37.50
2023-02-07T11:44:56.419Z,31.20
2023-02-07T11:50:06.963Z,35.10
2023-02-07T11:55:20.066Z,36.10
2023-02-07T12:00:30.364Z,33.70
2023-02-07T12:05:40.058Z,26.70
2023-02-07T12:10:50.362Z,38.00
2023-02-07T12:16:11.330Z,32.30
2023-02-07T12:21:17.509Z,26.80
2023-02-07T12:26:46.078Z,32.70
2023-02-07T12:37:38.162Z,36.00
2023-02-07T12:42:46.820Z,30.90
2023-02-07T12:48:03.170Z,41.50
2023-02-07T12:53:18.090Z,29.80
2023-02-07T12:58:34.522Z,31.70
2023-02-07T13:04:04.018Z,31.50
2023-02-07T13:09:17.287Z,23.00
2023-02-07T13:14:38.793Z,26.00
2023-02-07T13:19:58.914Z,19.00
2023-02-07T13:25:08.498Z,32.80
2023-02-07T13:30:19.583Z,29.80
2023-02-07T13:35:30.815Z,26.10
2023-02-07T13:40:47.734Z,30.50
2023-02-07T13:46:27.263Z,23.50
2023-02-07T13:51:51.873Z,22.90
2023-02-07T13:57:21.250Z,30.70
2023-02-07T14:02:24.513Z,17.00
2023-02-07T14:07:36.084Z,24.00
2023-02-07T14:12:41.122Z,28.70
2023-02-07T14:17:45.588Z,28.00
2023-02-07T14:22:54.747Z,29.90
2023-02-07T14:28:17.706Z,28.30
2023-02-07T14:33:23.826Z,22.50
2023-02-07T14:38:42.801Z,23.60
2023-02-07T14:44:03.327Z,30.00
2023-02-07T14:49:37.666Z,26.80
2023-02-07T14:54:44.602Z,29.30
2023-02-07T14:59:51.657Z,23.90
2023-02-07T15:04:55.751Z,25.90
2023-02-07T15:10:00.046Z,43.70
2023-02-07T15:15:06.808Z,26.60
2023-02-07T15:20:22.252Z,36.50
2023-02-07T15:25:28.311Z,24.10
2023-02-07T15:30:33.913Z,28.60
2023-02-07T15:35:40.003Z,27.30
2023-02-07T15:40:44.929Z,22.70
2023-02-07T15:46:00.714Z,24.00
2023-02-07T15:51:06.544Z,24.20
2023-02-07T15:56:15.761Z,21.70
2023-02-07T16:01:28.907Z,27.00
2023-02-07T16:06:33.659Z,22.10
2023-02-07T16:11:41.067Z,19.70
2023-02-07T16:16:58.143Z,26.90
2023-02-07T16:22:07.432Z,21.70
2023-02-07T16:27:39.553Z,25.20
2023-02-07T16:32:50.897Z,26.50
2023-02-07T16:38:05.929Z,22.40
2023-02-07T16:43:39.488Z,21.50
2023-02-07T16:48:44.784Z,26.50
2023-02-07T16:53:49.984Z,27.50
2023-02-07T16:58:54.287Z,27.30
2023-02-07T17:03:59.356Z,23.70
2023-02-07T17:09:03.572Z,39.10
2023-02-07T17:14:08.730Z,46.20
2023-02-07T17:19:21.370Z,62.60
2023-02-07T17:24:25.867Z,40.40
2023-02-07T17:29:31.257Z,39.80
2023-02-07T17:34:34.909Z,26.60
2023-02-07T17:39:40.636Z,26.70
2023-02-07T17:44:45.855Z,35.40
2023-02-07T17:49:50.209Z,37.90
2023-02-07T17:54:55.270Z,46.20
2023-02-07T18:00:01.291Z,30.60
2023-02-07T18:05:05.603Z,107.70
2023-02-07T18:10:10.479Z,259.20
2023-02-07T18:15:14.390Z,298.90
2023-02-07T18:20:26.456Z,76.80
2023-02-07T18:25:34.948Z,40.70
2023-02-07T18:30:40.741Z,41.10
2023-02-07T18:35:44.965Z,67.90
2023-02-07T18:40:49.258Z,48.40
2023-02-07T18:45:53.581Z,50.80
2023-02-07T18:50:59.235Z,34.40
2023-02-07T18:56:09.122Z,30.70
2023-02-07T19:01:19.637Z,30.30
2023-02-07T19:06:26.456Z,33.10
2023-02-07T19:11:30.316Z,32.20
2023-02-07T19:16:35.529Z,34.00
2023-02-07T19:21:40.337Z,31.00
2023-02-07T19:26:46.825Z,40.50
2023-02-07T19:31:51.487Z,37.80
2023-02-07T19:36:56.073Z,25.60
2023-02-07T19:42:00.994Z,39.20
2023-02-07T19:47:05.710Z,41.30
2023-02-07T19:52:10.559Z,39.90
2023-02-07T19:57:15.770Z,48.20
2023-02-07T20:02:20.476Z,25.60
2023-02-07T20:07:31.460Z,34.50
2023-02-07T20:12:38.111Z,38.40
2023-02-07T20:17:42.063Z,34.40
2023-02-07T20:22:45.710Z,44.20
2023-02-07T20:27:49.994Z,38.50
2023-02-07T20:32:55.399Z,32.30
2023-02-07T20:38:00.777Z,42.10
2023-02-07T20:43:05.438Z,37.30
2023-02-07T20:48:14.116Z,42.30
2023-02-07T20:53:18.751Z,37.10
2023-02-07T20:58:22.828Z,41.40
2023-02-07T21:03:26.545Z,40.90
2023-02-07T21:08:31.198Z,46.80
2023-02-07T21:13:37.714Z,48.60
2023-02-07T21:18:47.766Z,47.40
2023-02-07T21:23:53.098Z,56.90
2023-02-07T21:29:01.750Z,61.40
2023-02-07T21:34:06.954Z,58.40
2023-02-07T21:39:12.734Z,63.00
2023-02-07T21:44:21.232Z,57.00
2023-02-07T21:49:25.092Z,52.30
2023-02-07T21:54:29.356Z,41.70
2023-02-07T21:59:33.165Z,41.20
2023-02-07T22:04:37.319Z,46.10
2023-02-07T22:09:41.913Z,47.70
2023-02-07T22:14:46.306Z,63.30
2023-02-07T22:19:52.301Z,53.10
2023-02-07T22:24:55.756Z,52.80
2023-02-07T22:30:00.470Z,58.80
2023-02-07T22:35:05.136Z,58.90
2023-02-07T22:40:10.137Z,75.80
2023-02-07T22:45:14.801Z,59.30
2023-02-07T22:50:18.521Z,62.50
2023-02-07T22:55:22.858Z,67.00
2023-02-07T23:00:27.435Z,64.30
2023-02-07T23:05:31.839Z,61.40
2023-02-07T23:10:35.549Z,61.20
2023-02-07T23:15:46.053Z,62.90
2023-02-07T23:20:50.892Z,72.20
2023-02-07T23:25:56.005Z,62.20
2023-02-07T23:31:01.730Z,63.90
2023-02-07T23:36:07.821Z,56.80
2023-02-07T23:41:13.402Z,61.50
2023-02-07T23:46:19.568Z,61.40
2023-02-07T23:51:23.692Z,56.60
2023-02-07T23:56:28.237Z,59.10
